sensor_id;sensor_type;location;lat;lon;timestamp;pressure;altitude;pressure_sealevel;temperature;humidity
29169;BME280;16219;42.864;23.360;2023-12-20T00:01:24;96287.19;;;0.36;100.00
29169;BME280;16219;42.864;23.360;2023-12-20T00:03:51;96285.38;;;0.36;100.00
29169;BME280;16219;42.864;23.360;2023-12-20T00:06:18;96280.44;;;0.35;100.00
29169;BME280;16219;42.864;23.360;2023-12-20T00:08:45;96278.06;;;0.33;100.00
29169;BME280;16219;42.864;23.360;2023-12-20T00:11:13;96274.41;;;0.17;100.00
29169;BME280;16219;42.864;23.360;2023-12-20T00:13:40;96232.88;;;0.01;100.00
29169;BME280;16219;42.864;23.360;2023-12-20T00:16:09;96258.03;;;0.17;100.00
29169;BME280;16219;42.864;23.360;2023-12-20T00:18:36;96259.69;;;0.06;100.00
29169;BME280;16219;42.864;23.360;2023-12-20T00:21:04;96237.81;;;0.02;100.00
29169;BME280;16219;42.864;23.360;2023-12-20T00:23:31;96245.63;;;0.19;100.00
29169;BME280;16219;42.864;23.360;2023-12-20T00:25:58;96245.63;;;0.19;100.00
29169;BME280;16219;42.864;23.360;2023-12-20T00:28:25;96234.94;;;0.15;100.00
29169;BME280;16219;42.864;23.360;2023-12-20T00:30:52;96240.91;;;0.16;100.00
29169;BME280;16219;42.864;23.360;2023-12-20T00:33:20;96238.56;;;0.14;100.00
29169;BME280;16219;42.864;23.360;2023-12-20T00:35:48;96233.41;;;0.03;100.00
29169;BME280;16219;42.864;23.360;2023-12-20T00:38:14;96230.16;;;-0.05;100.00
29169;BME280;16219;42.864;23.360;2023-12-20T00:40:41;96228.13;;;-0.03;100.00
29169;BME280;16219;42.864;23.360;2023-12-20T00:43:08;96227.03;;;-0.07;100.00
29169;BME280;16219;42.864;23.360;2023-12-20T00:45:36;96167.66;;;-0.48;100.00
29169;BME280;16219;42.864;23.360;2023-12-20T00:48:04;96229.69;;;-0.02;100.00
29169;BME280;16219;42.864;23.360;2023-12-20T00:50:33;96227.03;;;-0.07;100.00
29169;BME280;16219;42.864;23.360;2023-12-20T00:53:00;96209.69;;;-0.18;100.00
29169;BME280;16219;42.864;23.360;2023-12-20T00:55:27;96216.66;;;-0.07;100.00
29169;BME280;16219;42.864;23.360;2023-12-20T00:57:54;96222.06;;;-0.08;100.00
29169;BME280;16219;42.864;23.360;2023-12-20T01:00:21;96220.81;;;-0.06;100.00
29169;BME280;16219;42.864;23.360;2023-12-20T01:02:48;96195.25;;;-0.14;100.00
29169;BME280;16219;42.864;23.360;2023-12-20T01:05:17;96214.56;;;0.07;100.00
29169;BME280;16219;42.864;23.360;2023-12-20T01:07:46;96201.66;;;0.12;100.00
29169;BME280;16219;42.864;23.360;2023-12-20T01:10:13;96192.56;;;0.10;100.00
29169;BME280;16219;42.864;23.360;2023-12-20T01:12:40;96197.97;;;0.08;100.00
29169;BME280;16219;42.864;23.360;2023-12-20T01:15:08;96195.94;;;0.10;100.00
29169;BME280;16219;42.864;23.360;2023-12-20T01:17:35;96181.06;;;0.06;100.00
29169;BME280;16219;42.864;23.360;2023-12-20T01:20:02;96186.78;;;-0.09;100.00
29169;BME280;16219;42.864;23.360;2023-12-20T01:22:29;96192.28;;;-0.06;100.00
29169;BME280;16219;42.864;23.360;2023-12-20T01:24:57;96184.03;;;-0.03;100.00
29169;BME280;16219;42.864;23.360;2023-12-20T01:27:24;96151.09;;;-0.19;100.00
29169;BME280;16219;42.864;23.360;2023-12-20T01:29:51;96174.78;;;0.02;100.00
29169;BME280;16219;42.864;23.360;2023-12-20T01:32:18;96172.47;;;-0.12;100.00
29169;BME280;16219;42.864;23.360;2023-12-20T01:34:45;96168.16;;;-0.06;100.00
29169;BME280;16219;42.864;23.360;2023-12-20T01:37:14;96159.69;;;-0.02;100.00
29169;BME280;16219;42.864;23.360;2023-12-20T01:39:41;96161.66;;;0.08;100.00
29169;BME280;16219;42.864;23.360;2023-12-20T01:42:09;96148.28;;;-0.01;100.00
29169;BME280;16219;42.864;23.360;2023-12-20T01:44:36;96155.84;;;0.01;100.00
29169;BME280;16219;42.864;23.360;2023-12-20T01:47:03;96154.31;;;-0.12;100.00
29169;BME280;16219;42.864;23.360;2023-12-20T01:49:30;96150.00;;;-0.06;100.00
29169;BME280;16219;42.864;23.360;2023-12-20T01:51:57;96152.53;;;0.06;100.00
29169;BME280;16219;42.864;23.360;2023-12-20T01:54:24;96142.50;;;0.09;100.00
29169;BME280;16219;42.864;23.360;2023-12-20T01:56:51;96140.69;;;0.10;100.00
29169;BME280;16219;42.864;23.360;2023-12-20T01:59:20;96132.91;;;0.10;100.00
29169;BME280;16219;42.864;23.360;2023-12-20T02:01:48;96135.50;;;0.10;100.00
29169;BME280;16219;42.864;23.360;2023-12-20T02:04:15;96132.91;;;0.10;100.00
29169;BME280;16219;42.864;23.360;2023-12-20T02:06:43;96129.84;;;0.13;100.00
29169;BME280;16219;42.864;23.360;2023-12-20T02:09:12;96121.88;;;0.03;100.00
29169;BME280;16219;42.864;23.360;2023-12-20T02:11:40;96129.41;;;0.04;100.00
29169;BME280;16219;42.864;23.360;2023-12-20T02:14:06;96112.91;;;-0.07;100.00
29169;BME280;16219;42.864;23.360;2023-12-20T02:16:35;96117.00;;;-0.11;100.00
29169;BME280;16219;42.864;23.360;2023-12-20T02:19:03;96110.16;;;-0.17;100.00
29169;BME280;16219;42.864;23.360;2023-12-20T02:21:33;96112.91;;;-0.07;100.00
29169;BME280;16219;42.864;23.360;2023-12-20T02:24:01;96108.91;;;0.03;100.00
29169;BME280;16219;42.864;23.360;2023-12-20T02:26:28;96108.84;;;-0.03;100.00
29169;BME280;16219;42.864;23.360;2023-12-20T02:28:55;96097.34;;;-0.07;100.00
29169;BME280;16219;42.864;23.360;2023-12-20T02:31:23;96091.44;;;-0.19;100.00
29169;BME280;16219;42.864;23.360;2023-12-20T02:33:50;96097.75;;;-0.15;100.00
29169;BME280;16219;42.864;23.360;2023-12-20T02:36:17;96053.91;;;-0.33;100.00
29169;BME280;16219;42.864;23.360;2023-12-20T02:38:45;96095.31;;;-0.05;100.00
29169;BME280;16219;42.864;23.360;2023-12-20T02:41:12;96094.84;;;-0.02;100.00
29169;BME280;16219;42.864;23.360;2023-12-20T02:43:41;96085.41;;;-0.08;100.00
29169;BME280;16219;42.864;23.360;2023-12-20T02:46:08;96060.97;;;-0.29;100.00
29169;BME280;16219;42.864;23.360;2023-12-20T02:48:35;96074.41;;;-0.15;100.00
29169;BME280;16219;42.864;23.360;2023-12-20T02:51:02;96083.38;;;-0.06;100.00
29169;BME280;16219;42.864;23.360;2023-12-20T02:53:29;96076.16;;;-0.04;100.00
29169;BME280;16219;42.864;23.360;2023-12-20T02:55:57;96086.91;;;-0.12;100.00
29169;BME280;16219;42.864;23.360;2023-12-20T02:58:24;96076.91;;;-0.20;100.00
29169;BME280;16219;42.864;23.360;2023-12-20T03:00:51;96078.16;;;-0.22;100.00
29169;BME280;16219;42.864;23.360;2023-12-20T03:03:18;96077.84;;;-0.26;100.00
29169;BME280;16219;42.864;23.360;2023-12-20T03:05:45;96076.19;;;-0.32;100.00
29169;BME280;16219;42.864;23.360;2023-12-20T03:08:13;96075.16;;;-0.31;100.00
29169;BME280;16219;42.864;23.360;2023-12-20T03:10:40;96055.84;;;-0.40;100.00
29169;BME280;16219;42.864;23.360;2023-12-20T03:13:08;96083.66;;;-0.19;100.00
29169;BME280;16219;42.864;23.360;2023-12-20T03:15:35;96075.66;;;-0.17;100.00
29169;BME280;16219;42.864;23.360;2023-12-20T03:18:03;96077.53;;;-0.13;100.00
29169;BME280;16219;42.864;23.360;2023-12-20T03:20:30;96069.53;;;-0.11;100.00
29169;BME280;16219;42.864;23.360;2023-12-20T03:23:00;96065.75;;;-0.20;100.00
29169;BME280;16219;42.864;23.360;2023-12-20T03:25:27;96067.47;;;-0.26;100.00
29169;BME280;16219;42.864;23.360;2023-12-20T03:27:53;96066.69;;;-0.27;100.00
29169;BME280;16219;42.864;23.360;2023-12-20T03:30:22;96070.75;;;-0.31;100.00
29169;BME280;16219;42.864;23.360;2023-12-20T03:32:49;96068.88;;;-0.35;100.00
29169;BME280;16219;42.864;23.360;2023-12-20T03:35:16;96072.34;;;-0.46;100.00
29169;BME280;16219;42.864;23.360;2023-12-20T03:37:43;96062.84;;;-0.41;100.00
29169;BME280;16219;42.864;23.360;2023-12-20T03:40:10;96061.28;;;-0.42;100.00
29169;BME280;16219;42.864;23.360;2023-12-20T03:42:37;96058.81;;;-0.48;100.00
29169;BME280;16219;42.864;23.360;2023-12-20T03:45:05;96054.72;;;-0.44;100.00
29169;BME280;16219;42.864;23.360;2023-12-20T03:47:33;96060.69;;;-0.44;100.00
29169;BME280;16219;42.864;23.360;2023-12-20T03:50:00;96057.31;;;-0.44;100.00
29169;BME280;16219;42.864;23.360;2023-12-20T03:52:27;96058.09;;;-0.44;100.00
29169;BME280;16219;42.864;23.360;2023-12-20T03:54:54;96038.00;;;-0.54;100.00
29169;BME280;16219;42.864;23.360;2023-12-20T03:57:21;96045.94;;;-0.43;100.00
29169;BME280;16219;42.864;23.360;2023-12-20T03:59:48;96045.94;;;-0.43;100.00
29169;BME280;16219;42.864;23.360;2023-12-20T04:02:16;96046.22;;;-0.57;100.00
29169;BME280;16219;42.864;23.360;2023-12-20T04:04:44;96049.84;;;-0.58;100.00
29169;BME280;16219;42.864;23.360;2023-12-20T04:07:11;96048.88;;;-0.68;100.00
29169;BME280;16219;42.864;23.360;2023-12-20T04:09:38;96044.72;;;-0.69;100.00
29169;BME280;16219;42.864;23.360;2023-12-20T04:12:07;96042.28;;;-0.76;100.00
29169;BME280;16219;42.864;23.360;2023-12-20T04:14:34;96028.97;;;-0.68;100.00
29169;BME280;16219;42.864;23.360;2023-12-20T04:17:01;96028.63;;;-0.71;100.00
29169;BME280;16219;42.864;23.360;2023-12-20T04:19:28;96020.53;;;-0.75;100.00
29169;BME280;16219;42.864;23.360;2023-12-20T04:21:56;96016.25;;;-0.81;100.00
29169;BME280;16219;42.864;23.360;2023-12-20T04:24:23;96016.06;;;-0.80;100.00
29169;BME280;16219;42.864;23.360;2023-12-20T04:26:50;96021.34;;;-0.86;100.00
29169;BME280;16219;42.864;23.360;2023-12-20T04:29:17;96012.09;;;-0.82;100.00
29169;BME280;16219;42.864;23.360;2023-12-20T04:31:44;96014.16;;;-0.84;100.00
29169;BME280;16219;42.864;23.360;2023-12-20T04:34:11;96018.78;;;-0.86;100.00
29169;BME280;16219;42.864;23.360;2023-12-20T04:36:38;96014.69;;;-0.82;100.00
29169;BME280;16219;42.864;23.360;2023-12-20T04:39:06;96008.13;;;-0.73;100.00
29169;BME280;16219;42.864;23.360;2023-12-20T04:41:33;96008.50;;;-0.81;100.00
29169;BME280;16219;42.864;23.360;2023-12-20T04:44:00;95971.63;;;-1.17;100.00
29169;BME280;16219;42.864;23.360;2023-12-20T04:46:27;96014.16;;;-0.84;100.00
29169;BME280;16219;42.864;23.360;2023-12-20T04:48:54;96016.09;;;-0.91;100.00
29169;BME280;16219;42.864;23.360;2023-12-20T04:51:22;96011.38;;;-0.94;100.00
29169;BME280;16219;42.864;23.360;2023-12-20T04:53:49;96006.59;;;-0.86;100.00
29169;BME280;16219;42.864;23.360;2023-12-20T04:56:17;96006.03;;;-0.76;100.00
29169;BME280;16219;42.864;23.360;2023-12-20T04:58:44;96002.63;;;-0.77;100.00
29169;BME280;16219;42.864;23.360;2023-12-20T05:01:11;95999.25;;;-0.77;100.00
29169;BME280;16219;42.864;23.360;2023-12-20T05:03:38;96008.59;;;-0.76;100.00
29169;BME280;16219;42.864;23.360;2023-12-20T05:06:05;95999.25;;;-0.77;100.00
29169;BME280;16219;42.864;23.360;2023-12-20T05:08:32;95994.84;;;-0.77;100.00
29169;BME280;16219;42.864;23.360;2023-12-20T05:10:59;95999.34;;;-0.72;100.00
29169;BME280;16219;42.864;23.360;2023-12-20T05:13:28;95992.56;;;-0.73;100.00
29169;BME280;16219;42.864;23.360;2023-12-20T05:15:55;95985.03;;;-0.91;100.00
29169;BME280;16219;42.864;23.360;2023-12-20T05:18:22;95992.78;;;-0.91;100.00
29169;BME280;16219;42.864;23.360;2023-12-20T05:20:50;95987.69;;;-0.86;100.00
29169;BME280;16219;42.864;23.360;2023-12-20T05:23:17;95981.03;;;-0.82;100.00
29169;BME280;16219;42.864;23.360;2023-12-20T05:25:45;96001.84;;;-0.77;100.00
29169;BME280;16219;42.864;23.360;2023-12-20T05:28:13;95986.66;;;-0.85;100.00
29169;BME280;16219;42.864;23.360;2023-12-20T05:30:41;95990.28;;;-0.86;100.00
29169;BME280;16219;42.864;23.360;2023-12-20T05:33:09;95974.13;;;-0.93;100.00
29169;BME280;16219;42.864;23.360;2023-12-20T05:35:36;95983.41;;;-0.81;100.00
29169;BME280;16219;42.864;23.360;2023-12-20T05:38:04;95975.31;;;-0.84;100.00
29169;BME280;16219;42.864;23.360;2023-12-20T05:40:30;95952.47;;;-0.87;100.00
29169;BME280;16219;42.864;23.360;2023-12-20T05:42:57;95974.38;;;-0.78;100.00
29169;BME280;16219;42.864;23.360;2023-12-20T05:45:25;95973.50;;;-0.84;100.00
29169;BME280;16219;42.864;23.360;2023-12-20T05:47:53;95970.66;;;-0.82;100.00
29169;BME280;16219;42.864;23.360;2023-12-20T05:50:20;95959.81;;;-0.96;100.00
29169;BME280;16219;42.864;23.360;2023-12-20T05:52:48;95960.94;;;-0.92;100.00
29169;BME280;16219;42.864;23.360;2023-12-20T05:55:16;95969.25;;;-0.90;100.00
29169;BME280;16219;42.864;23.360;2023-12-20T05:57:43;95952.78;;;-0.84;100.00
29169;BME280;16219;42.864;23.360;2023-12-20T06:00:11;95962.16;;;-0.94;100.00
29169;BME280;16219;42.864;23.360;2023-12-20T06:02:39;95926.06;;;-1.18;100.00
29169;BME280;16219;42.864;23.360;2023-12-20T06:05:08;95961.31;;;-1.00;100.00
29169;BME280;16219;42.864;23.360;2023-12-20T06:07:35;95963.13;;;-1.01;100.00
29169;BME280;16219;42.864;23.360;2023-12-20T06:10:03;95960.53;;;-1.01;100.00
29169;BME280;16219;42.864;23.360;2023-12-20T06:12:31;95955.88;;;-0.98;100.00
29169;BME280;16219;42.864;23.360;2023-12-20T06:15:01;95952.25;;;-1.14;100.00
29169;BME280;16219;42.864;23.360;2023-12-20T06:17:29;95952.66;;;-1.06;100.00
29169;BME280;16219;42.864;23.360;2023-12-20T06:19:57;95950.09;;;-1.06;100.00
29169;BME280;16219;42.864;23.360;2023-12-20T06:22:25;95946.88;;;-0.96;100.00
29169;BME280;16219;42.864;23.360;2023-12-20T06:24:53;95945.41;;;-0.92;100.00
29169;BME280;16219;42.864;23.360;2023-12-20T06:27:20;95951.66;;;-1.05;100.00
29169;BME280;16219;42.864;23.360;2023-12-20T06:29:47;95946.94;;;-1.08;100.00
29169;BME280;16219;42.864;23.360;2023-12-20T06:32:15;95955.25;;;-1.06;100.00
29169;BME280;16219;42.864;23.360;2023-12-20T06:34:42;95944.88;;;-1.22;100.00
29169;BME280;16219;42.864;23.360;2023-12-20T06:37:09;95945.81;;;-1.12;100.00
29169;BME280;16219;42.864;23.360;2023-12-20T06:39:38;95942.63;;;-1.02;100.00
29169;BME280;16219;42.864;23.360;2023-12-20T06:42:05;95945.31;;;-0.97;100.00
29169;BME280;16219;42.864;23.360;2023-12-20T06:44:33;95944.81;;;-0.94;100.00
29169;BME280;16219;42.864;23.360;2023-12-20T06:47:00;95942.63;;;-0.85;100.00
29169;BME280;16219;42.864;23.360;2023-12-20T06:49:28;95943.19;;;-0.83;100.00
29169;BME280;16219;42.864;23.360;2023-12-20T06:51:55;95944.78;;;-0.82;100.00
29169;BME280;16219;42.864;23.360;2023-12-20T06:54:22;95923.31;;;-0.94;100.00
29169;BME280;16219;42.864;23.360;2023-12-20T06:56:51;95941.31;;;-0.88;100.00
29169;BME280;16219;42.864;23.360;2023-12-20T06:59:18;95939.84;;;-0.84;100.00
29169;BME280;16219;42.864;23.360;2023-12-20T07:01:48;95936.91;;;-0.87;100.00
29169;BME280;16219;42.864;23.360;2023-12-20T07:04:15;95933.94;;;-0.96;100.00
29169;BME280;16219;42.864;23.360;2023-12-20T07:06:45;95940.84;;;-1.02;100.00
29169;BME280;16219;42.864;23.360;2023-12-20T07:09:13;95926.88;;;-1.01;100.00
29169;BME280;16219;42.864;23.360;2023-12-20T07:11:41;95932.38;;;-0.97;100.00
29169;BME280;16219;42.864;23.360;2023-12-20T07:14:10;95927.50;;;-0.93;100.00
29169;BME280;16219;42.864;23.360;2023-12-20T07:16:37;95922.81;;;-0.80;100.00
29169;BME280;16219;42.864;23.360;2023-12-20T07:19:06;95907.88;;;-0.72;100.00
29169;BME280;16219;42.864;23.360;2023-12-20T07:21:33;95918.88;;;-0.48;100.00
29169;BME280;16219;42.864;23.360;2023-12-20T07:24:01;95920.09;;;-0.34;100.00
29169;BME280;16219;42.864;23.360;2023-12-20T07:26:28;95915.09;;;-0.24;100.00
29169;BME280;16219;42.864;23.360;2023-12-20T07:28:55;95912.25;;;-0.22;100.00
29169;BME280;16219;42.864;23.360;2023-12-20T07:31:26;95901.56;;;-0.26;100.00
29169;BME280;16219;42.864;23.360;2023-12-20T07:33:53;95898.09;;;-0.15;100.00
29169;BME280;16219;42.864;23.360;2023-12-20T07:36:21;95900.91;;;0.01;100.00
29169;BME280;16219;42.864;23.360;2023-12-20T07:38:48;95904.94;;;0.13;100.00
29169;BME280;16219;42.864;23.360;2023-12-20T07:41:15;95892.91;;;-0.15;100.00
29169;BME280;16219;42.864;23.360;2023-12-20T07:43:43;95901.09;;;-0.23;100.00
29169;BME280;16219;42.864;23.360;2023-12-20T07:46:10;95891.19;;;-0.26;100.00
29169;BME280;16219;42.864;23.360;2023-12-20T07:48:38;95895.22;;;-0.35;100.00
29169;BME280;16219;42.864;23.360;2023-12-20T07:51:07;95891.13;;;-0.31;100.00
29169;BME280;16219;42.864;23.360;2023-12-20T07:53:35;95890.00;;;-0.18;100.00
29169;BME280;16219;42.864;23.360;2023-12-20T07:56:13;95891.94;;;-0.09;100.00
29169;BME280;16219;42.864;23.360;2023-12-20T07:58:41;95881.66;;;-0.04;100.00
29169;BME280;16219;42.864;23.360;2023-12-20T08:01:08;95891.59;;;0.05;100.00
29169;BME280;16219;42.864;23.360;2023-12-20T08:03:36;95893.94;;;0.06;100.00
29169;BME280;16219;42.864;23.360;2023-12-20T08:06:05;95885.44;;;0.11;100.00
29169;BME280;16219;42.864;23.360;2023-12-20T08:08:32;95876.28;;;0.03;100.00
29169;BME280;16219;42.864;23.360;2023-12-20T08:11:00;95884.78;;;0.20;100.00
29169;BME280;16219;42.864;23.360;2023-12-20T08:13:28;95887.97;;;0.06;100.00
29169;BME280;16219;42.864;23.360;2023-12-20T08:15:55;95891.78;;;0.20;100.00
29169;BME280;16219;42.864;23.360;2023-12-20T08:18:23;95887.38;;;0.20;100.00
29169;BME280;16219;42.864;23.360;2023-12-20T08:20:51;95875.72;;;0.23;100.00
29169;BME280;16219;42.864;23.360;2023-12-20T08:23:21;95882.16;;;0.42;100.00
29169;BME280;16219;42.864;23.360;2023-12-20T08:25:49;95881.00;;;0.55;100.00
29169;BME280;16219;42.864;23.360;2023-12-20T08:28:17;95866.13;;;0.72;100.00
29169;BME280;16219;42.864;23.360;2023-12-20T08:30:44;95869.44;;;0.68;100.00
29169;BME280;16219;42.864;23.360;2023-12-20T08:33:12;95863.81;;;0.76;100.00
29169;BME280;16219;42.864;23.360;2023-12-20T08:35:40;95861.31;;;0.86;100.00
29169;BME280;16219;42.864;23.360;2023-12-20T08:38:07;95859.91;;;1.06;100.00
29169;BME280;16219;42.864;23.360;2023-12-20T08:40:36;95851.53;;;1.31;100.00
29169;BME280;16219;42.864;23.360;2023-12-20T08:43:03;95826.31;;;1.31;100.00
29169;BME280;16219;42.864;23.360;2023-12-20T08:45:30;95845.66;;;1.45;100.00
29169;BME280;16219;42.864;23.360;2023-12-20T08:47:57;95843.28;;;1.44;100.00
29169;BME280;16219;42.864;23.360;2023-12-20T08:50:25;95835.03;;;1.52;100.00
29169;BME280;16219;42.864;23.360;2023-12-20T08:52:52;95822.31;;;1.56;100.00
29169;BME280;16219;42.864;23.360;2023-12-20T08:55:20;95787.91;;;1.38;100.00
29169;BME280;16219;42.864;23.360;2023-12-20T08:57:48;95809.72;;;1.85;100.00
29169;BME280;16219;42.864;23.360;2023-12-20T09:00:16;95800.16;;;1.95;100.00
29169;BME280;16219;42.864;23.360;2023-12-20T09:02:46;95799.59;;;1.93;100.00
29169;BME280;16219;42.864;23.360;2023-12-20T09:05:13;95791.31;;;2.02;100.00
29169;BME280;16219;42.864;23.360;2023-12-20T09:07:40;95791.03;;;2.03;100.00
29169;BME280;16219;42.864;23.360;2023-12-20T09:10:08;95777.25;;;1.97;100.00
29169;BME280;16219;42.864;23.360;2023-12-20T09:12:35;95788.69;;;1.91;100.00
29169;BME280;16219;42.864;23.360;2023-12-20T09:15:11;95776.41;;;1.87;100.00
29169;BME280;16219;42.864;23.360;2023-12-20T09:17:38;95768.88;;;1.85;100.00
29169;BME280;16219;42.864;23.360;2023-12-20T09:20:07;95762.38;;;1.83;100.00
29169;BME280;16219;42.864;23.360;2023-12-20T09:22:35;95759.53;;;1.89;100.00
29169;BME280;16219;42.864;23.360;2023-12-20T09:25:04;95758.47;;;1.85;100.00
29169;BME280;16219;42.864;23.360;2023-12-20T09:27:31;95750.09;;;1.73;100.00
29169;BME280;16219;42.864;23.360;2023-12-20T09:29:58;95745.16;;;1.66;100.00
29169;BME280;16219;42.864;23.360;2023-12-20T09:32:27;95731.59;;;1.64;100.00
29169;BME280;16219;42.864;23.360;2023-12-20T09:34:55;95729.84;;;1.80;100.00
29169;BME280;16219;42.864;23.360;2023-12-20T09:37:25;95723.09;;;1.89;100.00
29169;BME280;16219;42.864;23.360;2023-12-20T09:39:53;95710.88;;;1.95;100.00
29169;BME280;16219;42.864;23.360;2023-12-20T09:42:24;95702.31;;;1.94;100.00
29169;BME280;16219;42.864;23.360;2023-12-20T09:44:59;95703.34;;;1.93;100.00
29169;BME280;16219;42.864;23.360;2023-12-20T09:47:30;95700.25;;;1.96;100.00
29169;BME280;16219;42.864;23.360;2023-12-20T09:49:57;95690.63;;;2.02;100.00
29169;BME280;16219;42.864;23.360;2023-12-20T09:52:24;95691.41;;;2.03;100.00
29169;BME280;16219;42.864;23.360;2023-12-20T09:54:53;95694.78;;;1.98;100.00
29169;BME280;16219;42.864;23.360;2023-12-20T09:57:21;95678.38;;;1.92;100.00
29169;BME280;16219;42.864;23.360;2023-12-20T09:59:48;95679.41;;;1.91;100.00
29169;BME280;16219;42.864;23.360;2023-12-20T10:02:18;95675.00;;;1.97;100.00
29169;BME280;16219;42.864;23.360;2023-12-20T10:04:50;95670.34;;;2.09;100.00
29169;BME280;16219;42.864;23.360;2023-12-20T10:07:17;95663.56;;;2.08;100.00
29169;BME280;16219;42.864;23.360;2023-12-20T10:09:44;95628.16;;;1.82;100.00
29169;BME280;16219;42.864;23.360;2023-12-20T10:12:12;95651.31;;;2.04;100.00
29169;BME280;16219;42.864;23.360;2023-12-20T10:14:39;95652.91;;;2.05;100.00
29169;BME280;16219;42.864;23.360;2023-12-20T10:17:07;95647.97;;;2.18;100.00
29169;BME280;16219;42.864;23.360;2023-12-20T10:19:34;95638.06;;;2.25;100.00
29169;BME280;16219;42.864;23.360;2023-12-20T10:22:04;95632.59;;;2.42;100.00
29169;BME280;16219;42.864;23.360;2023-12-20T10:24:31;95626.84;;;2.56;100.00
29169;BME280;16219;42.864;23.360;2023-12-20T10:27:01;95630.19;;;2.71;100.00
29169;BME280;16219;42.864;23.360;2023-12-20T10:29:32;95630.94;;;2.97;100.00
29169;BME280;16219;42.864;23.360;2023-12-20T10:31:59;95625.66;;;3.13;100.00
29169;BME280;16219;42.864;23.360;2023-12-20T10:34:26;95626.16;;;3.20;100.00
29169;BME280;16219;42.864;23.360;2023-12-20T10:36:53;95619.41;;;3.19;100.00
29169;BME280;16219;42.864;23.360;2023-12-20T10:39:23;95618.88;;;3.17;100.00
29169;BME280;16219;42.864;23.360;2023-12-20T10:41:50;95600.13;;;3.10;100.00
29169;BME280;16219;42.864;23.360;2023-12-20T10:44:17;95592.81;;;3.17;100.00
29169;BME280;16219;42.864;23.360;2023-12-20T10:46:45;95592.56;;;3.13;100.00
29169;BME280;16219;42.864;23.360;2023-12-20T10:49:17;95581.81;;;3.25;100.00
29169;BME280;16219;42.864;23.360;2023-12-20T10:51:47;95557.84;;;3.18;100.00
29169;BME280;16219;42.864;23.360;2023-12-20T10:54:15;95580.09;;;3.55;100.00
29169;BME280;16219;42.864;23.360;2023-12-20T10:56:44;95579.03;;;3.56;100.00
29169;BME280;16219;42.864;23.360;2023-12-20T10:59:14;95566.97;;;3.70;100.00
29169;BME280;16219;42.864;23.360;2023-12-20T11:01:48;95559.09;;;3.75;100.00
29169;BME280;16219;42.864;23.360;2023-12-20T11:04:19;95558.56;;;3.78;100.00
29169;BME280;16219;42.864;23.360;2023-12-20T11:06:53;95556.97;;;3.77;100.00
29169;BME280;16219;42.864;23.360;2023-12-20T11:09:25;95552.31;;;3.74;100.00
29169;BME280;16219;42.864;23.360;2023-12-20T11:12:03;95548.91;;;3.73;100.00
29169;BME280;16219;42.864;23.360;2023-12-20T11:14:37;95539.09;;;3.60;100.00
29169;BME280;16219;42.864;23.360;2023-12-20T11:19:36;95538.50;;;3.34;100.00
29169;BME280;16219;42.864;23.360;2023-12-20T11:22:04;95501.13;;;3.05;100.00
29169;BME280;16219;42.864;23.360;2023-12-20T11:24:33;95517.69;;;3.24;100.00
29169;BME280;16219;42.864;23.360;2023-12-20T11:27:05;95515.63;;;3.21;100.00
29169;BME280;16219;42.864;23.360;2023-12-20T11:29:33;95505.47;;;3.19;100.00
29169;BME280;16219;42.864;23.360;2023-12-20T11:32:02;95506.75;;;3.22;100.00
29169;BME280;16219;42.864;23.360;2023-12-20T11:34:33;95500.94;;;3.35;100.00
29169;BME280;16219;42.864;23.360;2023-12-20T11:37:03;95499.81;;;3.46;100.00
29169;BME280;16219;42.864;23.360;2023-12-20T11:39:31;95488.72;;;3.65;100.00
29169;BME280;16219;42.864;23.360;2023-12-20T11:42:06;95488.00;;;3.59;100.00
29169;BME280;16219;42.864;23.360;2023-12-20T11:44:33;95479.38;;;3.59;100.00
29169;BME280;16219;42.864;23.360;2023-12-20T11:47:00;95480.44;;;3.58;100.00
29169;BME280;16219;42.864;23.360;2023-12-20T11:49:28;95459.78;;;3.66;100.00
29169;BME280;16219;42.864;23.360;2023-12-20T11:51:56;95466.41;;;3.83;100.00
29169;BME280;16219;42.864;23.360;2023-12-20T11:54:26;95456.94;;;3.92;100.00
29169;BME280;16219;42.864;23.360;2023-12-20T11:56:53;95456.09;;;3.96;100.00
29169;BME280;16219;42.864;23.360;2023-12-20T11:59:21;95450.44;;;3.89;100.00
29169;BME280;16219;42.864;23.360;2023-12-20T12:01:49;95443.66;;;3.88;100.00
29169;BME280;16219;42.864;23.360;2023-12-20T12:04:16;95428.31;;;3.82;100.00
29169;BME280;16219;42.864;23.360;2023-12-20T12:06:44;95420.91;;;3.65;100.00
29169;BME280;16219;42.864;23.360;2023-12-20T12:09:11;95416.63;;;3.79;100.00
29169;BME280;16219;42.864;23.360;2023-12-20T12:11:38;95411.88;;;3.57;100.00
29169;BME280;16219;42.864;23.360;2023-12-20T12:14:07;95420.81;;;3.46;100.00
29169;BME280;16219;42.864;23.360;2023-12-20T12:16:36;95417.69;;;3.44;100.00
29169;BME280;16219;42.864;23.360;2023-12-20T12:19:03;95414.81;;;3.45;100.00
29169;BME280;16219;42.864;23.360;2023-12-20T12:21:30;95419.13;;;3.26;100.00
29169;BME280;16219;42.864;23.360;2023-12-20T12:24:06;95398.94;;;3.08;100.00
29169;BME280;16219;42.864;23.360;2023-12-20T12:26:33;95408.84;;;3.11;100.00
29169;BME280;16219;42.864;23.360;2023-12-20T12:29:00;95406.28;;;3.00;100.00
29169;BME280;16219;42.864;23.360;2023-12-20T12:31:28;95410.94;;;3.09;100.00
29169;BME280;16219;42.864;23.360;2023-12-20T12:33:57;95405.47;;;3.05;100.00
29169;BME280;16219;42.864;23.360;2023-12-20T12:36:24;95408.66;;;2.97;100.00
29169;BME280;16219;42.864;23.360;2023-12-20T12:38:51;95407.88;;;2.96;100.00
29169;BME280;16219;42.864;23.360;2023-12-20T12:41:18;95406.78;;;3.08;100.00
29169;BME280;16219;42.864;23.360;2023-12-20T12:43:46;95409.88;;;3.10;100.00
29169;BME280;16219;42.864;23.360;2023-12-20T12:46:13;95406.97;;;3.16;100.00
29169;BME280;16219;42.864;23.360;2023-12-20T12:48:40;95397.63;;;3.10;100.00
29169;BME280;16219;42.864;23.360;2023-12-20T12:51:08;95403.09;;;3.09;100.00